TAF LFSO
LFSO 090800Z 0909/1009 24010G20KT 9999 BKN007 PROB40 TEMPO 0910/0914 4000 -RASN BECMG 0913/0915 SCT007 BKN017 BECMG 0918/0920 BKN007 BECMG 1003/1005 18010G25KT SN TEMPO 1005/1009 2000 BKN003=
METAR LFSO
LFSO 091030Z AUTO 21012KT 9999 BKN008 03/01 Q1008 TEMPO 4000 -RASN=
LFSO 091000Z AUTO 22013KT 9999 OVC008 02/01 Q1008 TEMPO 4000 -RASN=
LFSO 090930Z AUTO 22014KT 9999 OVC008 02/01 Q1008 TEMPO 4000 -RASN=
LFSO 090900Z AUTO 23013KT 9999 OVC007 02/01 Q1008 TEMPO 4000 -RASN=
LFSO 090830Z AUTO 23013KT 9999 OVC008 02/01 Q1007 TEMPO 4000 -RASN=
WC LFSO
WS LFSO
WV LFSO